createdAt,value
2019-03-24T00:03:55.783Z,41.03
2019-03-24T00:09:23.622Z,40.67
2019-03-24T00:14:31.826Z,39.80
2019-03-24T00:19:40.009Z,39.90
2019-03-24T00:24:47.003Z,39.90
2019-03-24T00:29:56.775Z,39.27
2019-03-24T00:35:06.300Z,39.57
2019-03-24T00:40:15.174Z,39.60
2019-03-24T00:45:23.485Z,41.20
2019-03-24T00:50:30.276Z,41.70
2019-03-24T00:55:37.141Z,39.93
2019-03-24T01:00:49.949Z,40.63
2019-03-24T01:05:56.521Z,39.93
2019-03-24T01:11:03.002Z,39.63
2019-03-24T01:16:09.144Z,38.93
2019-03-24T01:21:16.037Z,42.00
2019-03-24T01:26:22.121Z,41.47
2019-03-24T01:31:29.007Z,39.87
2019-03-24T01:36:34.887Z,40.87
2019-03-24T01:41:40.846Z,41.33
2019-03-24T01:46:47.432Z,41.00
2019-03-24T01:51:54.027Z,41.20
2019-03-24T01:57:01.645Z,41.47
2019-03-24T02:02:07.702Z,42.30
2019-03-24T02:07:15.251Z,41.67
2019-03-24T02:12:23.538Z,41.80
2019-03-24T02:17:30.221Z,41.13
2019-03-24T02:22:36.297Z,42.70
2019-03-24T02:27:42.881Z,42.57
2019-03-24T02:32:50.287Z,41.77
2019-03-24T02:37:56.874Z,41.80
2019-03-24T02:43:02.807Z,42.00
2019-03-24T02:48:09.654Z,42.40
2019-03-24T02:53:16.534Z,42.37
2019-03-24T02:58:24.649Z,43.33
2019-03-24T03:03:30.628Z,42.37
2019-03-24T03:08:36.696Z,42.10
2019-03-24T03:13:43.898Z,41.93
2019-03-24T03:18:52.533Z,41.87
2019-03-24T03:23:59.357Z,42.53
2019-03-24T03:29:06.729Z,41.10
2019-03-24T03:34:13.629Z,41.87
2019-03-24T03:39:21.849Z,42.90
2019-03-24T03:44:27.825Z,43.00
2019-03-24T03:49:35.137Z,43.87
2019-03-24T03:54:42.018Z,43.33
2019-03-24T03:59:50.161Z,44.20
2019-03-24T04:04:56.115Z,43.83
2019-03-24T04:10:03.024Z,44.23
2019-03-24T04:15:11.371Z,43.73
2019-03-24T04:20:19.246Z,42.17
2019-03-24T04:25:26.047Z,43.87
2019-03-24T04:30:33.743Z,42.00
2019-03-24T04:35:41.675Z,42.50
2019-03-24T04:40:47.751Z,43.27
2019-03-24T04:45:54.833Z,40.83
2019-03-24T04:51:01.423Z,42.27
2019-03-24T04:56:08.525Z,40.67
2019-03-24T05:01:15.526Z,41.70
2019-03-24T05:06:22.740Z,41.60
2019-03-24T05:11:30.072Z,41.93
2019-03-24T05:16:39.315Z,41.27
2019-03-24T05:21:47.290Z,40.53
2019-03-24T05:26:53.785Z,40.97
2019-03-24T05:31:59.846Z,40.87
2019-03-24T05:37:06.537Z,40.50
2019-03-24T05:42:12.449Z,38.43
2019-03-24T05:47:18.903Z,39.53
2019-03-24T05:52:27.618Z,40.43
2019-03-24T05:57:34.307Z,40.30
2019-03-24T06:02:41.151Z,39.63
2019-03-24T06:07:49.019Z,38.20
2019-03-24T06:12:55.758Z,38.63
2019-03-24T06:18:02.193Z,38.37
2019-03-24T06:23:08.703Z,39.50
2019-03-24T06:28:16.899Z,37.73
2019-03-24T06:33:22.868Z,37.93
2019-03-24T06:43:52.344Z,36.87
2019-03-24T06:48:59.344Z,37.03
2019-03-24T06:54:05.932Z,35.67
2019-03-24T06:59:12.566Z,36.83
2019-03-24T07:04:19.709Z,37.97
2019-03-24T07:09:38.666Z,33.77
2019-03-24T07:14:44.660Z,36.00
2019-03-24T07:19:51.363Z,31.77
2019-03-24T07:24:58.137Z,31.87
2019-03-24T07:30:09.431Z,33.57
2019-03-24T07:35:18.423Z,32.20
2019-03-24T07:40:25.474Z,32.63
2019-03-24T07:45:34.119Z,33.10
2019-03-24T07:50:42.868Z,32.83
2019-03-24T07:55:48.918Z,33.37
2019-03-24T08:01:08.229Z,34.27
2019-03-24T08:06:14.374Z,32.17
2019-03-24T08:11:21.474Z,33.17
2019-03-24T08:16:28.027Z,33.27
2019-03-24T08:21:36.672Z,32.57
2019-03-24T08:26:43.487Z,31.63
2019-03-24T08:31:50.081Z,29.50
2019-03-24T08:36:56.976Z,32.27
2019-03-24T08:42:03.523Z,30.70
2019-03-24T08:47:09.629Z,30.83
2019-03-24T08:52:16.514Z,32.53
2019-03-24T08:57:23.615Z,33.57
2019-03-24T09:02:31.329Z,32.03
2019-03-24T09:07:39.343Z,33.73
2019-03-24T09:12:57.696Z,34.07
2019-03-24T09:18:04.297Z,33.07
2019-03-24T09:23:10.993Z,33.23
2019-03-24T09:28:17.553Z,33.57
2019-03-24T09:33:24.462Z,33.70
2019-03-24T09:38:32.989Z,31.73
2019-03-24T09:43:39.901Z,33.27
2019-03-24T09:49:07.263Z,32.23
2019-03-24T09:54:15.686Z,29.90
2019-03-24T10:00:21.465Z,28.83
2019-03-24T10:05:28.994Z,27.97
2019-03-24T10:10:35.554Z,27.43
2019-03-24T10:15:42.563Z,27.87
2019-03-24T10:20:48.629Z,25.90
2019-03-24T10:25:55.625Z,24.27
2019-03-24T10:31:02.572Z,25.67
2019-03-24T10:47:44.670Z,23.57
2019-03-24T10:52:51.990Z,23.90
2019-03-24T10:57:59.073Z,22.27
2019-03-24T11:03:05.449Z,23.27
2019-03-24T11:08:11.479Z,22.47
2019-03-24T11:13:19.494Z,22.83
2019-03-24T11:18:25.299Z,23.60
2019-03-24T11:23:31.328Z,21.37
2019-03-24T11:28:38.312Z,22.90
2019-03-24T11:33:46.364Z,22.87
2019-03-24T11:38:53.742Z,22.73
2019-03-24T11:44:00.550Z,22.93
2019-03-24T11:49:19.464Z,24.10
2019-03-24T11:54:26.880Z,22.60
2019-03-24T11:59:34.042Z,22.23
2019-03-24T12:04:40.777Z,23.13
2019-03-24T12:09:47.841Z,22.97
2019-03-24T12:14:56.193Z,21.13
2019-03-24T12:20:23.176Z,24.13
2019-03-24T12:25:31.582Z,20.03
2019-03-24T12:30:38.293Z,18.50
2019-03-24T12:35:45.171Z,17.47
2019-03-24T12:40:53.305Z,19.50
2019-03-24T12:46:01.012Z,19.47
2019-03-24T12:51:06.971Z,20.20
2019-03-24T12:56:13.963Z,19.27
2019-03-24T13:01:19.854Z,17.53
2019-03-24T13:06:28.231Z,18.20
2019-03-24T13:11:35.646Z,16.93
2019-03-24T13:16:43.358Z,15.53
2019-03-24T13:21:51.647Z,15.07
2019-03-24T13:26:57.585Z,13.60
2019-03-24T13:32:05.302Z,16.57
2019-03-24T13:37:11.822Z,15.97
2019-03-24T13:42:19.531Z,17.50
2019-03-24T13:47:29.036Z,15.50
2019-03-24T13:52:35.260Z,16.57
2019-03-24T13:57:43.573Z,19.47
2019-03-24T14:02:52.639Z,14.53
2019-03-24T14:07:58.716Z,15.07
2019-03-24T14:13:08.555Z,15.20
2019-03-24T14:18:16.924Z,16.50
2019-03-24T14:23:25.004Z,13.80
2019-03-24T14:28:33.621Z,12.83
2019-03-24T14:33:41.444Z,12.80
2019-03-24T14:38:48.890Z,14.63
2019-03-24T14:43:56.413Z,13.50
2019-03-24T14:49:04.988Z,12.07
2019-03-24T14:54:12.561Z,11.33
2019-03-24T14:59:21.454Z,11.53
2019-03-24T15:04:29.341Z,9.33
2019-03-24T15:09:37.757Z,9.93
2019-03-24T15:14:47.133Z,10.80
2019-03-24T15:19:55.191Z,10.20
2019-03-24T15:25:02.966Z,11.10
2019-03-24T15:30:11.628Z,10.30
2019-03-24T15:35:19.925Z,11.87
2019-03-24T15:40:28.343Z,11.20
2019-03-24T15:45:35.463Z,10.03
2019-03-24T15:50:41.931Z,10.47
2019-03-24T15:55:49.782Z,11.37
2019-03-24T16:00:57.015Z,10.73
2019-03-24T16:06:06.230Z,12.23
2019-03-24T16:11:16.118Z,12.27
2019-03-24T16:16:24.932Z,11.77
2019-03-24T16:21:32.006Z,11.13
2019-03-24T16:26:39.899Z,11.27
2019-03-24T16:32:08.035Z,12.53
2019-03-24T16:37:16.318Z,12.50
2019-03-24T16:42:24.593Z,11.27
2019-03-24T16:47:32.104Z,11.27
2019-03-24T16:52:42.443Z,12.00
2019-03-24T16:57:52.183Z,11.60
2019-03-24T17:03:01.841Z,13.00
2019-03-24T17:08:08.833Z,12.50
2019-03-24T17:13:17.396Z,12.03
2019-03-24T17:18:30.094Z,13.43
2019-03-24T17:23:37.694Z,13.07
2019-03-24T17:28:46.917Z,13.63
2019-03-24T17:33:53.628Z,14.20
2019-03-24T17:39:00.856Z,13.63
2019-03-24T17:44:10.099Z,14.63
2019-03-24T17:49:18.428Z,14.97
2019-03-24T17:54:28.762Z,15.67
2019-03-24T17:59:38.508Z,16.90
2019-03-24T18:04:46.109Z,17.97
2019-03-24T18:09:54.386Z,19.97
2019-03-24T18:15:02.306Z,22.40
2019-03-24T18:20:12.464Z,22.63
2019-03-24T18:25:19.476Z,22.00
2019-03-24T18:30:28.335Z,22.90
2019-03-24T18:35:35.551Z,24.80
2019-03-24T18:40:43.345Z,24.20
2019-03-24T18:45:51.677Z,24.37
2019-03-24T18:50:59.298Z,23.20
2019-03-24T18:56:06.950Z,24.90
2019-03-24T19:01:15.718Z,24.40
2019-03-24T19:06:23.543Z,26.23
2019-03-24T19:11:31.300Z,25.33
2019-03-24T19:16:38.420Z,25.60
2019-03-24T19:21:45.083Z,27.30
2019-03-24T19:26:53.924Z,27.30
2019-03-24T19:32:04.650Z,24.87
2019-03-24T19:37:13.117Z,26.30
2019-03-24T19:42:20.875Z,27.43
2019-03-24T19:47:29.196Z,26.47
2019-03-24T19:52:44.611Z,26.87
2019-03-24T19:57:48.533Z,26.07
2019-03-24T20:02:55.768Z,27.27
2019-03-24T20:08:02.827Z,27.10
2019-03-24T20:13:10.082Z,26.97
2019-03-24T20:18:19.197Z,26.13
2019-03-24T20:23:27.086Z,28.73
2019-03-24T20:28:36.344Z,30.63
2019-03-24T20:33:43.356Z,31.90
2019-03-24T20:38:53.614Z,30.97
2019-03-24T20:44:01.766Z,31.80
2019-03-24T20:49:10.040Z,32.00
2019-03-24T20:54:16.036Z,35.67
2019-03-24T20:59:25.030Z,34.53
2019-03-24T21:04:34.570Z,35.57
2019-03-24T21:09:42.966Z,34.60
2019-03-24T21:14:50.523Z,36.90
2019-03-24T21:19:58.613Z,36.03
2019-03-24T21:25:06.775Z,37.30
2019-03-24T21:30:16.118Z,38.07
2019-03-24T21:35:34.556Z,35.67
2019-03-24T21:40:41.626Z,37.23
2019-03-24T21:45:52.265Z,39.23
2019-03-24T21:50:58.695Z,41.13
2019-03-24T21:56:04.977Z,40.27
2019-03-24T22:01:14.986Z,40.10
2019-03-24T22:06:23.891Z,35.13
2019-03-24T22:11:31.358Z,35.33
2019-03-24T22:16:39.311Z,37.07
2019-03-24T22:21:45.174Z,33.70
2019-03-24T22:26:51.857Z,31.57
2019-03-24T22:31:58.240Z,31.00
2019-03-24T22:37:15.163Z,29.60
2019-03-24T22:42:12.923Z,31.33
2019-03-24T22:47:18.623Z,31.03
2019-03-24T22:52:26.500Z,33.03
2019-03-24T22:57:32.741Z,33.53
2019-03-24T23:02:40.121Z,30.87
2019-03-24T23:07:48.246Z,31.00
2019-03-24T23:12:55.639Z,29.63
2019-03-24T23:18:02.858Z,30.20
2019-03-24T23:23:09.164Z,29.43
2019-03-24T23:28:15.915Z,29.47
2019-03-24T23:33:23.906Z,29.10
2019-03-24T23:38:30.535Z,28.87
2019-03-24T23:43:39.061Z,26.33
2019-03-24T23:48:44.931Z,25.13
2019-03-24T23:53:51.717Z,26.47
2019-03-24T23:58:57.475Z,24.97
